Bucks Lake, California
Current Conditions -  °F | °C
As of 4:00 PM on Friday 31 Oct 2014 (Local Time) from KBLU Reporting Station
Light Rain Light Rain  
Wind Chill: 38°   Ceiling: 300
Heat Index: 44°   Visibility: 0.25mi
Dew Point: 41°   Wind: 13mph
Humidity: 89%   Direction: 190°S
Pressure: 29.85"   Gusts: 22mph
Location:  39.939°N, 120.918°W
Report Text: KBLU 312300Z AUTO 19011G19KT 1/4SM -RA FG OVC003 07/05 A2985 RMK AO2 P0001 T00670050
Loading
Personal Weather Stations






























Interactive Weather Map
Tropical Storm Tracking
New forecast layout! Learn more

10-Day Weather Forecast

Advertisements
Track Severe Weather on mobile